CA-0467 weather

CLOSED Ajax / Picov Downs
Ontario, Canada

Public forecast

Using degrees Celsius for public forecast. Weather courtesy of forecast.io.

Closest aviation weather report (METAR) to Ajax / Picov Downs

Closest report is Toronto/Oshawa Executive Airport, 5.9 nm (11.0 km) ENE. Retrieved 2020/06/01 15:00 UTC (39 minutes ago):

CYOO 011500Z AUTO 21003KT 150V320 9SM CLR 16/05 A3020 RMK SLP231

Closest aviation forecast (TAF) to Ajax / Picov Downs

Closest forecast is Toronto/Oshawa Executive Airport, 5.9 nm (11.0 km) ENE. Retrieved 2020/06/01 14:00 UTC (2 hours ago):

TAF CYOO 011338Z 0114/0202 VRB03KT P6SM SCT200 BECMG 0115/0117 22012KT SCT080 FM012000 30010KT P6SM SCT140 RMK FCST BASED ON AUTO OBS NXT FCST BY 012000Z